Time;durP1;ratioP1;P1;durP2;ratioP2;P2;SDS_P1;SDS_P2;PMS_P1;PMS_P2;Temp;Humidity;BMP_temperature;BMP_pressure;BME280_temperature;BME280_humidity;BME280_pressure;Samples;Min_cycle;Max_cycle;Signal;HPM_P1;HPM_P2
2022/04/05 00:00:02;;;;;;;14.68;11.85;;;6.30;1.00;;;;;;4897260;28;20247;-79
2022/04/05 00:02:32;;;;;;;15.27;12.90;;;6.20;1.00;;;;;;4897338;28;20242;-77
2022/04/05 00:05:00;;;;;;;14.32;8.60;;;6.20;1.00;;;;;;4895764;29;20297;-80
2022/04/05 00:07:32;;;;;;;6.97;4.60;;;6.10;1.00;;;;;;4867757;29;20289;-78
2022/04/05 00:10:00;;;;;;;7.38;6.10;;;6.00;1.00;;;;;;4901160;29;20269;-80
2022/04/05 00:12:27;;;;;;;7.00;5.55;;;5.90;1.00;;;;;;4897818;29;20237;-78
2022/04/05 00:14:54;;;;;;;6.93;5.18;;;5.90;1.00;;;;;;4897040;29;20237;-78
2022/04/05 00:17:21;;;;;;;7.90;5.25;;;5.80;1.00;;;;;;4906754;29;20251;-80
2022/04/05 00:19:47;;;;;;;4.75;3.97;;;5.80;1.00;;;;;;4907133;29;20246;-80
2022/04/05 00:22:14;;;;;;;5.95;4.10;;;5.80;1.00;;;;;;4926232;28;20998;-78
2022/04/05 00:24:41;;;;;;;8.10;3.28;;;5.80;1.00;;;;;;4906015;28;20246;-79
2022/04/05 00:27:09;;;;;;;5.35;3.00;;;5.70;1.00;;;;;;4906599;29;20774;-79
2022/04/05 00:29:35;;;;;;;4.25;2.50;;;5.70;1.00;;;;;;4898469;28;20829;-78
2022/04/05 00:32:02;;;;;;;7.30;3.38;;;5.70;1.00;;;;;;4917646;28;20285;-79
2022/04/05 00:34:29;;;;;;;5.75;2.88;;;5.70;1.00;;;;;;4910609;28;20365;-76
2022/04/05 00:36:56;;;;;;;6.53;2.28;;;5.70;1.00;;;;;;4918871;28;20242;-80
2022/04/05 00:39:23;;;;;;;5.85;2.35;;;5.60;1.00;;;;;;4913262;28;20288;-79
2022/04/05 00:41:51;;;;;;;3.75;1.85;;;5.70;1.00;;;;;;4924913;28;20245;-78
2022/04/05 00:44:21;;;;;;;5.43;2.15;;;5.70;1.00;;;;;;4909848;28;20242;-78
2022/04/05 00:46:49;;;;;;;5.75;2.10;;;5.70;1.00;;;;;;4909889;29;20269;-80
2022/04/05 00:49:18;;;;;;;3.80;2.22;;;5.70;1.00;;;;;;4917132;28;20270;-79
2022/04/05 00:51:46;;;;;;;3.92;2.30;;;5.70;1.00;;;;;;4922436;28;20260;-78
2022/04/05 00:54:14;;;;;;;6.53;2.05;;;5.70;1.00;;;;;;4923145;28;20249;-80
2022/04/05 00:56:43;;;;;;;4.65;2.05;;;5.70;1.00;;;;;;4915096;28;20251;-77
2022/04/05 00:59:13;;;;;;;8.02;2.88;;;5.80;1.00;;;;;;4917891;28;20272;-80
2022/04/05 01:01:41;;;;;;;3.97;2.25;;;5.80;1.00;;;;;;4908757;28;20241;-80
2022/04/05 01:04:20;;;;;;;5.70;2.83;;;5.80;1.00;;;;;;4919362;28;20652;-80
2022/04/05 01:06:48;;;;;;;4.38;2.60;;;5.80;1.00;;;;;;4908462;28;20379;-80
2022/04/05 01:09:15;;;;;;;4.70;3.08;;;5.80;1.00;;;;;;4908087;28;20250;-80
2022/04/05 01:11:42;;;;;;;5.60;2.83;;;5.90;1.00;;;;;;4911211;28;20393;-79
2022/04/05 01:14:09;;;;;;;4.60;2.92;;;5.90;1.00;;;;;;4920670;28;20301;-79
2022/04/05 01:16:43;;;;;;;5.60;3.45;;;5.90;1.00;;;;;;4926961;28;20241;-79
2022/04/05 01:19:10;;;;;;;5.65;2.88;;;5.90;1.00;;;;;;4919308;28;20271;-76
2022/04/05 01:21:41;;;;;;;6.60;2.90;;;5.90;1.00;;;;;;4936612;28;20233;-78
2022/04/05 01:24:12;;;;;;;6.72;3.55;;;5.90;1.00;;;;;;4936686;28;20222;-78
2022/04/05 01:26:41;;;;;;;6.35;2.55;;;5.90;1.00;;;;;;4925521;28;20249;-78
2022/04/05 01:29:12;;;;;;;4.65;2.40;;;5.80;1.00;;;;;;4940737;28;20472;-78
2022/04/05 01:31:52;;;;;;;6.78;2.70;;;5.80;1.00;;;;;;4934074;28;20244;-78
2022/04/05 01:34:24;;;;;;;5.60;3.08;;;5.80;1.00;;;;;;4890940;28;20285;-81
2022/04/05 01:36:54;;;;;;;8.70;2.38;;;5.80;1.00;;;;;;4905122;28;20221;-78
2022/04/05 01:39:25;;;;;;;7.13;2.72;;;5.80;1.00;;;;;;4907271;28;20340;-79
2022/04/05 01:41:52;;;;;;;3.40;2.10;;;5.80;1.00;;;;;;4910736;28;20258;-79
2022/04/05 01:44:19;;;;;;;8.18;3.17;;;5.80;1.00;;;;;;4913630;28;20340;-79
2022/04/05 01:46:46;;;;;;;3.92;2.60;;;5.80;1.00;;;;;;4900007;28;20245;-78
2022/04/05 01:49:14;;;;;;;6.88;2.55;;;5.70;1.00;;;;;;4921200;28;20245;-80
2022/04/05 01:51:41;;;;;;;5.78;2.90;;;5.70;1.00;;;;;;4926102;28;20256;-78
2022/04/05 01:54:23;;;;;;;5.57;2.40;;;5.70;1.00;;;;;;4925324;28;20230;-79
2022/04/05 01:56:52;;;;;;;6.05;2.45;;;5.80;1.00;;;;;;4912861;28;20257;-80
2022/04/05 01:59:23;;;;;;;7.50;2.38;;;5.70;1.00;;;;;;4921321;28;20257;-78
2022/04/05 02:01:50;;;;;;;6.40;2.58;;;5.70;1.00;;;;;;4919056;28;20265;-78
2022/04/05 02:04:16;;;;;;;5.85;2.22;;;5.70;1.00;;;;;;4919220;28;20341;-78
2022/04/05 02:06:44;;;;;;;4.28;2.00;;;5.70;1.00;;;;;;4920936;28;20252;-78
2022/04/05 02:09:14;;;;;;;4.32;1.98;;;5.60;1.00;;;;;;4914642;28;20472;-80
2022/04/05 02:11:44;;;;;;;5.38;2.40;;;5.60;1.00;;;;;;4914568;28;20354;-78
2022/04/05 02:14:13;;;;;;;6.38;2.42;;;5.60;1.00;;;;;;4907297;28;20253;-78
2022/04/05 02:16:40;;;;;;;9.10;2.63;;;5.60;1.00;;;;;;4906850;28;20269;-77
2022/04/05 02:19:07;;;;;;;6.22;1.65;;;5.60;1.00;;;;;;4915508;28;20234;-79
2022/04/05 02:21:34;;;;;;;5.85;1.92;;;5.60;1.00;;;;;;4905409;28;20242;-78
2022/04/05 02:24:01;;;;;;;5.63;2.00;;;5.70;1.00;;;;;;4908971;28;20237;-79
2022/04/05 02:26:33;;;;;;;7.60;2.25;;;5.70;1.00;;;;;;4918832;28;20222;-76
2022/04/05 02:29:02;;;;;;;6.10;2.30;;;5.70;1.00;;;;;;4899197;28;22227;-78
2022/04/05 02:31:30;;;;;;;7.05;2.60;;;5.70;1.00;;;;;;4898641;29;20234;-80
2022/04/05 02:34:01;;;;;;;5.90;2.15;;;5.70;1.00;;;;;;4913805;28;20864;-78
2022/04/05 02:36:33;;;;;;;8.23;2.83;;;5.70;1.00;;;;;;4908829;28;20229;-78
2022/04/05 02:39:01;;;;;;;5.55;2.08;;;5.70;1.00;;;;;;4918478;28;20341;-78
2022/04/05 02:41:28;;;;;;;7.43;2.55;;;5.80;1.00;;;;;;4918419;28;20245;-79
2022/04/05 02:43:55;;;;;;;8.40;3.03;;;5.70;1.00;;;;;;4914244;28;20234;-78
2022/04/05 02:46:21;;;;;;;5.80;2.20;;;5.70;1.00;;;;;;4919708;28;20269;-77
2022/04/05 02:48:53;;;;;;;11.27;2.50;;;5.70;1.00;;;;;;4921752;28;20252;-79
2022/04/05 02:51:19;;;;;;;3.97;2.15;;;5.70;1.00;;;;;;4924091;28;20231;-78
2022/04/05 02:53:51;;;;;;;5.03;2.10;;;5.70;1.00;;;;;;4935731;28;20270;-77
2022/04/05 02:56:18;;;;;;;4.85;2.20;;;5.70;1.00;;;;;;4909864;28;20329;-78
2022/04/05 02:58:47;;;;;;;7.68;2.88;;;5.70;1.00;;;;;;4914832;28;20364;-78
2022/04/05 03:01:16;;;;;;;5.88;2.22;;;5.70;1.00;;;;;;4911567;28;20233;-78
2022/04/05 03:03:42;;;;;;;7.80;2.10;;;5.70;1.00;;;;;;4920038;28;20732;-79
2022/04/05 03:06:11;;;;;;;7.10;2.38;;;5.70;1.00;;;;;;4906256;28;20241;-78
2022/04/05 03:08:46;;;;;;;11.90;2.20;;;5.70;1.00;;;;;;4924720;28;20249;-78
2022/04/05 03:11:13;;;;;;;6.95;2.53;;;5.70;1.00;;;;;;4933048;28;21576;-79
2022/04/05 03:13:42;;;;;;;6.07;2.35;;;5.80;1.00;;;;;;4907384;28;20379;-78
2022/04/05 03:16:08;;;;;;;5.78;2.70;;;5.80;1.00;;;;;;4916245;28;20233;-79
2022/04/05 03:18:36;;;;;;;4.63;2.83;;;5.80;1.00;;;;;;4911967;28;20321;-78
2022/04/05 03:21:03;;;;;;;5.82;2.45;;;5.80;1.00;;;;;;4911680;28;21111;-78
2022/04/05 03:23:31;;;;;;;6.70;2.60;;;5.70;1.00;;;;;;4922522;28;20302;-78
2022/04/05 03:26:01;;;;;;;5.07;2.20;;;5.70;1.00;;;;;;4913627;28;20780;-80
2022/04/05 03:28:32;;;;;;;7.97;2.05;;;5.70;1.00;;;;;;4923063;28;20225;-80
2022/04/05 03:31:04;;;;;;;6.10;2.38;;;5.80;1.00;;;;;;4912683;28;20231;-78
2022/04/05 03:33:31;;;;;;;4.57;2.08;;;5.80;1.00;;;;;;4906466;29;20246;-78
2022/04/05 03:36:01;;;;;;;8.57;2.40;;;5.70;1.00;;;;;;4919521;29;20233;-77
2022/04/05 03:38:31;;;;;;;5.13;2.08;;;5.70;1.00;;;;;;4916475;28;20234;-77
2022/04/05 03:41:02;;;;;;;6.40;2.65;;;5.70;1.00;;;;;;4903770;28;20231;-80
2022/04/05 03:43:32;;;;;;;7.28;2.70;;;5.70;1.00;;;;;;4938225;28;20233;-78
2022/04/05 03:46:02;;;;;;;7.32;2.90;;;5.70;1.00;;;;;;4939447;28;20230;-77
2022/04/05 03:48:31;;;;;;;4.32;2.40;;;5.80;1.00;;;;;;4935786;28;20289;-78
2022/04/05 03:51:08;;;;;;;9.77;3.85;;;5.80;1.00;;;;;;4922580;28;20317;-79
2022/04/05 03:53:40;;;;;;;8.02;2.55;;;5.80;1.00;;;;;;4899072;28;21503;-78
2022/04/05 03:56:10;;;;;;;9.10;2.88;;;5.80;1.00;;;;;;4925817;28;20258;-79
2022/04/05 03:58:39;;;;;;;10.85;3.38;;;5.80;1.00;;;;;;4920096;28;20431;-79
2022/04/05 04:01:06;;;;;;;7.43;3.42;;;5.80;1.00;;;;;;4890580;29;20684;-78
2022/04/05 04:03:33;;;;;;;8.35;2.67;;;5.90;1.00;;;;;;4886841;29;20246;-79
2022/04/05 04:06:02;;;;;;;7.38;2.97;;;5.80;1.00;;;;;;4899880;29;21523;-79
2022/04/05 04:08:32;;;;;;;8.38;2.80;;;5.80;1.00;;;;;;4890665;29;20258;-78
2022/04/05 04:11:01;;;;;;;8.50;3.10;;;5.90;1.00;;;;;;4897374;29;20258;-79
2022/04/05 04:13:34;;;;;;;6.95;2.60;;;5.90;1.00;;;;;;4914638;28;20252;-79
2022/04/05 04:16:01;;;;;;;9.30;2.83;;;5.90;1.00;;;;;;4923927;28;20311;-80
2022/04/05 04:18:28;;;;;;;9.57;2.90;;;5.90;1.00;;;;;;4910755;28;20304;-79
2022/04/05 04:20:54;;;;;;;7.95;3.13;;;5.90;1.00;;;;;;4916053;28;20246;-78
2022/04/05 04:23:21;;;;;;;7.78;2.88;;;5.80;1.00;;;;;;4919677;28;20269;-79
2022/04/05 04:25:47;;;;;;;7.55;2.95;;;5.80;1.00;;;;;;4913016;28;20265;-78
2022/04/05 04:28:15;;;;;;;10.50;3.17;;;5.80;1.00;;;;;;4927576;28;20281;-78
2022/04/05 04:30:42;;;;;;;6.38;3.25;;;5.80;1.00;;;;;;4914598;28;20309;-78
2022/04/05 04:33:14;;;;;;;6.70;3.15;;;5.80;1.00;;;;;;4920665;28;20340;-79
2022/04/05 04:35:43;;;;;;;10.98;2.70;;;5.80;1.00;;;;;;4919824;28;20241;-78
2022/04/05 04:38:15;;;;;;;9.13;2.80;;;5.90;1.00;;;;;;4916072;28;20373;-79
2022/04/05 04:40:45;;;;;;;9.30;2.83;;;5.90;1.00;;;;;;4894785;28;20242;-77
2022/04/05 04:43:13;;;;;;;8.85;2.97;;;5.90;1.00;;;;;;4896950;29;20314;-78
2022/04/05 04:45:41;;;;;;;7.40;3.33;;;5.90;1.00;;;;;;4885280;29;20266;-76
2022/04/05 04:48:14;;;;;;;9.63;4.32;;;5.80;1.00;;;;;;4888327;29;20289;-77
2022/04/05 04:50:42;;;;;;;7.50;2.97;;;5.80;1.00;;;;;;4907356;29;20239;-76
2022/04/05 04:53:08;;;;;;;6.35;2.42;;;5.80;1.00;;;;;;4903903;28;20278;-76
2022/04/05 04:55:35;;;;;;;9.90;2.97;;;5.80;1.00;;;;;;4896229;29;20284;-77
2022/04/05 04:58:01;;;;;;;9.10;2.80;;;5.80;1.00;;;;;;4900668;29;23631;-76
2022/04/05 05:00:28;;;;;;;7.65;3.35;;;5.80;1.00;;;;;;4897722;29;20337;-76
2022/04/05 05:02:57;;;;;;;9.98;2.67;;;5.80;1.00;;;;;;4905733;29;20270;-79
2022/04/05 05:05:24;;;;;;;8.13;3.65;;;5.80;1.00;;;;;;4900006;29;20242;-77
2022/04/05 05:07:52;;;;;;;10.02;3.22;;;5.90;1.00;;;;;;4903359;29;20309;-79
2022/04/05 05:10:22;;;;;;;8.95;3.20;;;5.90;1.00;;;;;;4899399;29;20866;-78
2022/04/05 05:12:52;;;;;;;6.40;2.75;;;5.90;1.00;;;;;;4910863;28;20242;-77
2022/04/05 05:15:20;;;;;;;8.25;3.40;;;5.90;1.00;;;;;;4917294;28;20749;-77
2022/04/05 05:17:48;;;;;;;7.72;3.20;;;6.00;1.00;;;;;;4924528;28;20301;-76
2022/04/05 05:20:16;;;;;;;6.32;3.22;;;6.00;1.00;;;;;;4920779;28;20241;-76
2022/04/05 05:22:44;;;;;;;11.13;4.30;;;6.10;1.00;;;;;;4911072;28;20322;-78
2022/04/05 05:25:11;;;;;;;7.10;3.08;;;6.20;1.00;;;;;;4915650;28;20237;-76
2022/04/05 05:27:38;;;;;;;4.75;2.78;;;6.20;1.00;;;;;;4918589;28;20245;-76
2022/04/05 05:30:13;;;;;;;11.25;3.40;;;6.30;1.00;;;;;;4907469;28;20249;-76
2022/04/05 05:32:44;;;;;;;9.48;3.15;;;6.30;1.00;;;;;;4917945;28;20304;-81
2022/04/05 05:35:11;;;;;;;7.53;3.70;;;6.40;1.00;;;;;;4927988;28;20233;-78
2022/04/05 05:37:49;;;;;;;8.18;2.80;;;6.40;1.00;;;;;;4900658;28;22984;-77
2022/04/05 05:40:18;;;;;;;10.82;5.00;;;6.50;1.00;;;;;;4924384;28;20267;-78
2022/04/05 05:42:52;;;;;;;7.78;3.35;;;6.50;1.00;;;;;;4915636;28;20250;-80
2022/04/05 05:45:44;;;;;;;9.10;3.90;;;6.50;1.00;;;;;;4906373;28;20230;-76
2022/04/05 05:48:11;;;;;;;9.40;3.90;;;6.60;1.00;;;;;;4919837;28;20272;-77
2022/04/05 05:50:38;;;;;;;5.05;2.70;;;6.60;1.00;;;;;;4922056;28;22048;-76
2022/04/05 05:53:06;;;;;;;10.43;3.55;;;6.60;1.00;;;;;;4919769;28;20267;-79
2022/04/05 05:55:34;;;;;;;5.85;2.97;;;6.60;1.00;;;;;;4915918;28;21550;-78
2022/04/05 05:58:05;;;;;;;8.82;3.80;;;6.60;1.00;;;;;;4928242;28;20281;-77
2022/04/05 06:00:31;;;;;;;6.95;3.38;;;6.60;1.00;;;;;;4934729;28;20230;-78
2022/04/05 06:03:03;;;;;;;6.70;3.35;;;6.60;1.00;;;;;;4932024;28;20307;-78
2022/04/05 06:05:31;;;;;;;13.38;3.72;;;6.60;1.00;;;;;;4936168;28;20243;-76
2022/04/05 06:07:58;;;;;;;6.63;2.78;;;6.60;1.00;;;;;;4911150;28;20242;-78
2022/04/05 06:10:27;;;;;;;13.02;3.00;;;6.70;1.00;;;;;;4927773;28;20309;-78
2022/04/05 06:12:59;;;;;;;6.43;2.80;;;6.70;1.00;;;;;;4910804;28;20245;-78
2022/04/05 06:15:32;;;;;;;8.82;3.75;;;6.70;1.00;;;;;;4910953;28;22885;-78
2022/04/05 06:18:03;;;;;;;8.88;3.10;;;6.80;1.00;;;;;;4926226;28;20229;-78
2022/04/05 06:20:30;;;;;;;13.52;3.30;;;6.80;1.00;;;;;;4922964;28;21136;-79
2022/04/05 06:22:58;;;;;;;7.03;3.08;;;6.80;1.00;;;;;;4913807;28;20325;-79
2022/04/05 06:25:28;;;;;;;9.05;2.88;;;6.80;1.00;;;;;;4912859;28;20293;-78
2022/04/05 06:27:55;;;;;;;16.45;4.25;;;6.80;1.00;;;;;;4911546;28;20342;-80
2022/04/05 06:30:22;;;;;;;10.38;3.20;;;6.90;1.00;;;;;;4914169;28;20986;-80
2022/04/05 06:33:03;;;;;;;8.30;3.38;;;7.00;1.00;;;;;;4923575;28;20272;-77
2022/04/05 06:35:30;;;;;;;16.85;3.78;;;7.00;1.00;;;;;;4922006;28;20265;-81
2022/04/05 06:38:01;;;;;;;13.82;4.65;;;7.00;1.00;;;;;;4925642;28;20263;-79
2022/04/05 06:40:32;;;;;;;10.82;3.22;;;7.00;1.00;;;;;;4934794;28;20305;-78
2022/04/05 06:42:59;;;;;;;5.20;2.95;;;7.00;1.00;;;;;;4932442;28;20237;-78
2022/04/05 06:45:26;;;;;;;8.95;4.07;;;7.00;1.00;;;;;;4932615;28;20886;-79
2022/04/05 06:47:53;;;;;;;12.73;3.80;;;7.10;1.00;;;;;;4922291;28;20304;-78
2022/04/05 06:50:24;;;;;;;7.30;3.30;;;7.10;1.00;;;;;;4905532;28;20994;-77
2022/04/05 06:52:54;;;;;;;6.85;3.67;;;7.20;1.00;;;;;;4896322;28;20376;-77
2022/04/05 06:55:22;;;;;;;9.10;3.78;;;7.20;1.00;;;;;;4887300;28;20257;-77
2022/04/05 06:57:52;;;;;;;12.98;4.72;;;7.30;1.00;;;;;;4888639;29;20290;-77
2022/04/05 07:00:24;;;;;;;10.23;3.95;;;7.30;1.00;;;;;;4894172;28;20301;-78
2022/04/05 07:02:54;;;;;;;4.70;2.60;;;7.30;1.00;;;;;;4894266;28;20307;-77
2022/04/05 07:05:21;;;;;;;9.30;3.10;;;7.20;1.00;;;;;;4894820;28;20353;-76
2022/04/05 07:07:52;;;;;;;4.88;2.42;;;7.20;1.00;;;;;;4897395;28;20373;-77
2022/04/05 07:10:20;;;;;;;6.35;2.33;;;7.10;1.00;;;;;;4913261;28;20297;-77
2022/04/05 07:12:48;;;;;;;6.57;2.38;;;7.00;1.00;;;;;;4918660;28;20309;-77
2022/04/05 07:15:16;;;;;;;5.10;2.10;;;7.00;1.00;;;;;;4900309;29;20326;-77
2022/04/05 07:17:44;;;;;;;8.13;2.80;;;7.10;1.00;;;;;;4907018;28;20803;-76
2022/04/05 07:20:11;;;;;;;5.55;3.03;;;7.20;1.00;;;;;;4894638;29;20314;-74
2022/04/05 07:22:45;;;;;;;8.55;2.00;;;7.30;1.00;;;;;;4896197;29;21684;-76
2022/04/05 07:25:14;;;;;;;8.45;2.50;;;7.40;1.00;;;;;;4893034;29;20264;-76
2022/04/05 07:27:44;;;;;;;8.38;2.97;;;7.40;1.00;;;;;;4894324;28;21118;-77
2022/04/05 07:30:13;;;;;;;3.67;2.00;;;7.50;1.00;;;;;;4902258;28;20248;-76
2022/04/05 07:32:43;;;;;;;7.72;2.40;;;7.60;1.00;;;;;;4914002;28;20506;-76
2022/04/05 07:35:10;;;;;;;7.85;2.60;;;7.50;1.00;;;;;;4916995;28;20249;-77
2022/04/05 07:37:42;;;;;;;5.88;2.65;;;7.40;1.00;;;;;;4910243;28;20792;-77
2022/04/05 07:40:11;;;;;;;4.63;2.35;;;7.60;1.00;;;;;;4915727;28;20225;-78
2022/04/05 07:42:39;;;;;;;3.47;1.65;;;7.90;1.00;;;;;;4907715;28;20246;-78
2022/04/05 07:45:07;;;;;;;7.10;2.35;;;7.70;1.00;;;;;;4915170;28;21047;-78
2022/04/05 07:47:34;;;;;;;7.85;2.35;;;7.70;1.00;;;;;;4917076;23;20317;-78
2022/04/05 07:50:06;;;;;;;5.03;1.88;;;7.70;1.00;;;;;;4929580;28;20238;-77
2022/04/05 07:52:33;;;;;;;4.63;1.95;;;7.60;1.00;;;;;;4938135;28;20276;-75
2022/04/05 07:55:04;;;;;;;4.70;1.90;;;7.80;1.00;;;;;;4938320;28;20280;-77
2022/04/05 07:57:31;;;;;;;3.72;2.10;;;7.80;1.00;;;;;;4925215;28;20730;-77
2022/04/05 07:59:58;;;;;;;4.97;1.95;;;8.00;1.00;;;;;;4920468;28;20304;-77
2022/04/05 08:02:25;;;;;;;4.30;1.50;;;8.00;1.00;;;;;;4931451;28;20255;-77
2022/04/05 08:04:51;;;;;;;5.25;2.03;;;8.00;1.00;;;;;;4937308;28;20245;-76
2022/04/05 08:07:21;;;;;;;6.53;2.15;;;8.10;1.00;;;;;;4927327;28;20272;-78
2022/04/05 08:09:49;;;;;;;3.63;1.40;;;8.30;1.00;;;;;;4925703;28;20328;-78
2022/04/05 08:12:15;;;;;;;4.32;1.98;;;8.40;1.00;;;;;;4924667;28;20909;-78
2022/04/05 08:14:43;;;;;;;3.67;1.55;;;8.40;1.00;;;;;;4926043;28;20253;-78
2022/04/05 08:17:10;;;;;;;4.13;1.90;;;8.50;1.00;;;;;;4930395;28;20725;-78
2022/04/05 08:19:37;;;;;;;3.55;1.60;;;8.60;1.00;;;;;;4927073;28;20503;-77
2022/04/05 08:22:03;;;;;;;3.37;1.50;;;8.50;1.00;;;;;;4936964;28;20264;-77
2022/04/05 08:24:31;;;;;;;4.10;1.52;;;8.40;1.00;;;;;;4929010;28;20484;-78
2022/04/05 08:27:03;;;;;;;8.23;1.75;;;8.50;1.00;;;;;;4925937;28;20252;-78
2022/04/05 08:29:39;;;;;;;4.60;2.10;;;8.80;1.00;;;;;;4934401;28;20257;-78
2022/04/05 08:32:06;;;;;;;4.20;1.40;;;9.00;1.00;;;;;;4924532;28;21282;-77
2022/04/05 08:34:33;;;;;;;5.25;2.03;;;8.80;1.00;;;;;;4925102;28;20428;-78
2022/04/05 08:37:03;;;;;;;5.32;1.58;;;8.70;1.00;;;;;;4933032;28;20324;-78
2022/04/05 08:39:31;;;;;;;3.58;1.48;;;8.60;1.00;;;;;;4930587;28;20757;-77
2022/04/05 08:41:59;;;;;;;4.10;1.58;;;8.90;1.00;;;;;;4927503;28;20253;-79
2022/04/05 08:44:26;;;;;;;3.58;1.75;;;9.10;1.00;;;;;;4915480;28;20609;-78
2022/04/05 08:46:53;;;;;;;3.42;1.25;;;9.20;1.00;;;;;;4930553;28;20248;-80
2022/04/05 08:49:23;;;;;;;6.03;2.10;;;9.20;1.00;;;;;;4920921;28;20245;-80
2022/04/05 08:51:54;;;;;;;3.53;1.75;;;9.20;1.00;;;;;;4931707;28;20228;-78
2022/04/05 08:54:26;;;;;;;7.72;1.88;;;9.20;1.00;;;;;;4927998;28;20437;-79
2022/04/05 08:56:55;;;;;;;6.13;1.98;;;9.30;1.00;;;;;;4935817;28;20225;-80
2022/04/05 08:59:21;;;;;;;5.87;1.90;;;9.40;1.00;;;;;;4928157;28;20233;-77
2022/04/05 09:01:50;;;;;;;5.97;2.42;;;9.60;1.00;;;;;;4935234;28;20481;-78
2022/04/05 09:04:18;;;;;;;4.90;2.30;;;9.60;1.00;;;;;;4934746;28;20323;-79
2022/04/05 09:06:47;;;;;;;4.55;1.67;;;9.60;1.00;;;;;;4925518;28;20453;-77
2022/04/05 09:09:16;;;;;;;7.13;2.47;;;9.70;1.00;;;;;;4925444;28;20245;-79
2022/04/05 09:11:45;;;;;;;3.80;1.63;;;9.80;1.00;;;;;;4928401;28;20495;-77
2022/04/05 09:14:13;;;;;;;2.78;1.60;;;10.10;1.00;;;;;;4917370;28;20568;-77
2022/04/05 09:16:45;;;;;;;5.80;2.00;;;10.30;1.00;;;;;;4943837;23;20233;-77
2022/04/05 09:19:15;;;;;;;4.97;1.60;;;10.40;1.00;;;;;;4940003;28;20427;-77
2022/04/05 09:21:57;;;;;;;5.83;2.00;;;10.50;1.00;;;;;;4925474;28;20550;-78
2022/04/05 09:24:33;;;;;;;4.70;2.00;;;10.10;1.00;;;;;;4927948;28;20468;-76
2022/04/05 09:27:00;;;;;;;5.28;2.00;;;10.00;1.00;;;;;;4927546;28;20496;-77
2022/04/05 09:29:39;;;;;;;4.53;1.67;;;9.90;1.00;;;;;;4902043;28;20269;-77
2022/04/05 09:32:07;;;;;;;4.10;1.77;;;9.90;1.00;;;;;;4912777;28;20320;-78
2022/04/05 09:34:34;;;;;;;6.00;3.07;;;10.10;1.00;;;;;;4912280;28;20522;-77
2022/04/05 09:37:10;;;;;;;5.43;2.20;;;10.60;1.00;;;;;;4916614;28;20549;-78
2022/04/05 09:39:37;;;;;;;4.03;1.53;;;11.90;1.00;;;;;;4913534;28;20494;-77
2022/04/05 09:42:07;;;;;;;5.10;1.43;;;12.30;1.00;;;;;;4911585;28;20503;-78
2022/04/05 09:44:37;;;;;;;9.13;1.80;;;11.80;1.00;;;;;;4912184;28;21472;-78
2022/04/05 09:47:08;;;;;;;5.03;1.80;;;11.40;1.00;;;;;;4916976;28;21233;-79
2022/04/05 09:49:37;;;;;;;8.30;5.70;;;11.00;1.00;;;;;;4920182;28;20458;-79
2022/04/05 09:52:22;;;;;;;3.60;1.80;;;10.80;1.00;;;;;;4923699;28;20965;-77
2022/04/05 09:54:49;;;;;;;5.57;2.20;;;10.40;1.00;;;;;;4930569;28;20495;-78
2022/04/05 09:57:27;;;;;;;4.80;2.05;;;9.90;1.00;;;;;;4933781;28;20574;-78
2022/04/05 10:00:05;;;;;;;5.90;1.53;;;9.80;1.00;;;;;;4906110;28;20257;-77
2022/04/05 10:02:33;;;;;;;5.90;2.20;;;9.80;1.00;;;;;;4913076;28;20596;-77
2022/04/05 10:05:09;;;;;;;5.13;1.83;;;9.90;1.00;;;;;;4928503;28;20501;-77
2022/04/05 10:07:37;;;;;;;4.37;1.60;;;9.90;1.00;;;;;;4922462;28;20569;-77
2022/04/05 10:10:06;;;;;;;7.97;2.00;;;10.10;1.00;;;;;;4943487;28;21346;-79
2022/04/05 10:12:33;;;;;;;8.50;2.80;;;10.10;1.00;;;;;;4945501;28;20308;-77
2022/04/05 10:15:00;;;;;;;2.87;1.40;;;9.90;1.00;;;;;;4941715;28;21561;-78
2022/04/05 10:17:29;;;;;;;4.25;2.08;;;10.00;1.00;;;;;;4943908;28;21043;-80
2022/04/05 10:19:58;;;;;;;3.73;2.00;;;10.00;1.00;;;;;;4938535;28;20327;-77
2022/04/05 10:22:26;;;;;;;4.07;1.83;;;9.90;1.00;;;;;;4944965;28;20476;-80
2022/04/05 10:24:54;;;;;;;5.20;1.80;;;10.10;1.00;;;;;;4949213;28;20499;-79
2022/04/05 10:27:21;;;;;;;5.70;2.30;;;10.40;1.00;;;;;;4934638;28;20451;-78
2022/04/05 10:29:57;;;;;;;9.73;2.60;;;10.60;1.00;;;;;;4949894;28;20604;-77
2022/04/05 10:32:32;;;;;;;7.17;2.10;;;10.40;1.00;;;;;;4950464;28;20571;-77
2022/04/05 10:35:08;;;;;;;4.57;2.17;;;10.30;1.00;;;;;;4932667;28;21434;-77
2022/04/05 10:37:38;;;;;;;7.60;2.10;;;10.10;1.00;;;;;;4939806;28;20567;-78
2022/04/05 10:40:14;;;;;;;4.73;1.87;;;10.20;1.00;;;;;;4928093;28;20568;-79
2022/04/05 10:42:46;;;;;;;5.10;1.90;;;10.40;1.00;;;;;;4930471;28;20572;-76
2022/04/05 10:45:15;;;;;;;5.60;2.03;;;11.10;1.00;;;;;;4939231;28;20483;-79
2022/04/05 10:48:10;;;;;;;5.10;2.40;;;11.50;1.00;;;;;;4953591;23;20501;-77
2022/04/05 10:50:38;;;;;;;3.80;2.10;;;11.90;1.00;;;;;;4945065;28;20476;-78
2022/04/05 10:53:17;;;;;;;5.83;2.13;;;12.30;1.00;;;;;;4937786;28;20587;-78
2022/04/05 10:56:15;;;;;;;13.30;7.33;;;12.80;1.00;;;;;;4928887;28;20480;-78
2022/04/05 10:59:28;;;;;;;4.33;1.97;;;12.50;1.00;;;;;;4935512;28;20478;-77
2022/04/05 11:01:55;;;;;;;4.60;1.47;;;12.20;1.00;;;;;;4914701;28;20425;-78
2022/04/05 11:04:35;;;;;;;3.43;1.00;;;12.70;1.00;;;;;;4933682;28;20421;-78
2022/04/05 11:07:15;;;;;;;2.70;1.17;;;13.40;1.00;;;;;;4918868;28;20496;-78
2022/04/05 11:09:50;;;;;;;3.70;1.33;;;13.00;1.00;;;;;;4945667;28;20515;-78
2022/04/05 11:12:20;;;;;;;3.83;1.60;;;12.60;1.00;;;;;;4922851;28;21700;-77
2022/04/05 11:14:50;;;;;;;3.33;2.07;;;12.70;1.00;;;;;;4924381;28;21298;-77
2022/04/05 11:17:20;;;;;;;4.73;1.97;;;13.50;1.00;;;;;;4926300;28;20529;-77
2022/04/05 11:19:55;;;;;;;3.67;1.43;;;13.50;1.00;;;;;;4923798;28;25417;-78
2022/04/05 11:22:59;;;;;;;3.67;1.50;;;12.90;1.00;;;;;;4919263;28;20468;-78
2022/04/05 11:25:28;;;;;;;4.63;1.77;;;12.40;1.00;;;;;;4926894;28;20509;-78
2022/04/05 11:27:56;;;;;;;6.00;2.60;;;12.30;1.00;;;;;;4925010;28;20453;-77
2022/04/05 11:30:38;;;;;;;4.93;1.40;;;13.00;1.00;;;;;;4922503;28;20583;-77
2022/04/05 11:33:19;;;;;;;2.93;1.40;;;14.30;1.00;;;;;;4922789;28;20428;-78
2022/04/05 11:35:47;;;;;;;4.93;2.00;;;14.80;1.00;;;;;;4922604;28;20556;-78
2022/04/05 11:38:38;;;;;;;5.03;1.70;;;14.30;1.00;;;;;;4908260;23;20482;-79
2022/04/05 11:41:11;;;;;;;3.33;1.43;;;13.30;1.00;;;;;;4917326;28;20616;-77
2022/04/05 11:43:45;;;;;;;4.50;1.77;;;12.60;1.00;;;;;;4909274;28;20620;-78
2022/04/05 11:46:15;;;;;;;3.47;1.60;;;11.80;1.00;;;;;;4908402;28;21369;-78
2022/04/05 11:48:48;;;;;;;4.20;2.07;;;11.40;1.00;;;;;;4904199;28;20534;-78
2022/04/05 11:51:16;;;;;;;4.63;1.70;;;11.20;1.00;;;;;;4898471;28;20553;-77
2022/04/05 11:53:45;;;;;;;6.63;1.40;;;11.10;1.00;;;;;;4896811;28;20498;-78
2022/04/05 11:56:20;;;;;;;3.33;1.20;;;11.10;1.00;;;;;;4895400;28;20437;-79
2022/04/05 11:58:49;;;;;;;3.83;1.47;;;11.00;1.00;;;;;;4907360;28;20485;-77
2022/04/05 12:01:22;;;;;;;4.50;2.00;;;10.90;1.00;;;;;;4905764;28;20448;-77
2022/04/05 12:03:52;;;;;;;3.70;1.60;;;11.10;1.00;;;;;;4919943;28;20488;-79
2022/04/05 12:06:20;;;;;;;3.73;1.73;;;12.20;1.00;;;;;;4926370;28;21059;-77
2022/04/05 12:08:49;;;;;;;4.90;1.47;;;12.90;1.00;;;;;;4924378;28;20811;-79
2022/04/05 12:11:18;;;;;;;4.63;1.53;;;12.90;1.00;;;;;;4926184;28;21631;-78
2022/04/05 12:13:57;;;;;;;5.43;2.10;;;12.40;1.00;;;;;;4932849;28;20477;-80
2022/04/05 12:16:25;;;;;;;4.07;1.40;;;12.20;1.00;;;;;;4931563;28;20468;-79
2022/04/05 12:18:52;;;;;;;5.20;1.93;;;12.10;1.00;;;;;;4920793;28;20556;-77
2022/04/05 12:21:25;;;;;;;6.53;1.70;;;11.90;1.00;;;;;;4930302;28;20465;-80
2022/04/05 12:23:54;;;;;;;4.60;1.73;;;11.50;1.00;;;;;;4914889;28;22963;-77
2022/04/05 12:26:23;;;;;;;4.00;1.67;;;11.20;1.00;;;;;;4902392;28;20475;-78
2022/04/05 12:28:52;;;;;;;3.93;1.70;;;10.90;1.00;;;;;;4917084;28;20570;-78
2022/04/05 12:31:21;;;;;;;8.60;2.30;;;10.70;1.00;;;;;;4914664;28;20469;-78
2022/04/05 12:34:00;;;;;;;8.03;2.20;;;10.60;1.00;;;;;;4937658;28;20504;-77
2022/04/05 12:36:35;;;;;;;2.73;1.70;;;10.50;1.00;;;;;;4935948;28;20465;-79
2022/04/05 12:39:07;;;;;;;3.63;1.97;;;10.40;1.00;;;;;;4921100;28;20473;-79
2022/04/05 12:41:39;;;;;;;5.90;2.40;;;10.40;1.00;;;;;;4899837;28;20477;-77
2022/04/05 12:44:08;;;;;;;3.00;1.50;;;10.70;1.00;;;;;;4903898;28;20493;-79
2022/04/05 12:46:45;;;;;;;3.40;2.07;;;11.10;1.00;;;;;;4900234;28;20419;-77
2022/04/05 12:49:20;;;;;;;4.00;2.10;;;11.60;1.00;;;;;;4897238;28;21145;-78
2022/04/05 12:51:48;;;;;;;3.73;1.53;;;11.90;1.00;;;;;;4918299;28;21088;-80
2022/04/05 12:54:33;;;;;;;4.63;1.73;;;11.90;1.00;;;;;;4901193;28;20525;-79
2022/04/05 12:57:21;;;;;;;9.23;2.40;;;11.40;1.00;;;;;;4928608;28;20499;-79
2022/04/05 12:59:50;;;;;;;6.43;2.20;;;10.90;1.00;;;;;;4914909;28;20539;-79
2022/04/05 13:02:21;;;;;;;4.93;2.63;;;10.60;1.00;;;;;;4933651;28;21462;-78
2022/04/05 13:04:48;;;;;;;7.60;2.20;;;10.50;1.00;;;;;;4928552;28;25573;-81
2022/04/05 13:07:16;;;;;;;8.10;2.30;;;10.70;1.00;;;;;;4928417;28;21255;-79
2022/04/05 13:09:44;;;;;;;5.57;1.93;;;11.10;1.00;;;;;;4920400;28;20529;-78
2022/04/05 13:12:14;;;;;;;6.13;2.07;;;11.60;1.00;;;;;;4926209;28;20508;-78
2022/04/05 13:14:46;;;;;;;4.10;1.80;;;11.90;1.00;;;;;;4909220;28;20450;-77
2022/04/05 13:17:13;;;;;;;4.20;2.10;;;12.20;1.00;;;;;;4921580;28;20445;-77